createdAt,value
2022-09-23T00:00:40.412Z,0
2022-09-23T00:01:44.322Z,0
2022-09-23T00:02:48.199Z,0
2022-09-23T00:04:23.102Z,0
2022-09-23T00:05:26.189Z,0
2022-09-23T00:06:29.027Z,0
2022-09-23T00:08:04.228Z,0
2022-09-23T00:09:07.621Z,0
2022-09-23T00:10:10.821Z,0
2022-09-23T00:11:45.613Z,0
2022-09-23T00:12:48.380Z,0
2022-09-23T00:13:51.617Z,0
2022-09-23T00:15:26.829Z,0
2022-09-23T00:16:30.106Z,0
2022-09-23T00:17:33.298Z,0
2022-09-23T00:19:08.218Z,0
2022-09-23T00:20:11.514Z,0
2022-09-23T00:21:14.489Z,0
2022-09-23T00:22:49.598Z,0
2022-09-23T00:23:52.631Z,0
2022-09-23T00:24:55.735Z,0
2022-09-23T00:26:30.877Z,0
2022-09-23T00:27:33.970Z,0
2022-09-23T00:28:37.143Z,0
2022-09-23T00:30:12.248Z,0
2022-09-23T00:31:16.011Z,0
2022-09-23T00:32:19.258Z,0
2022-09-23T00:33:53.995Z,0
2022-09-23T00:34:57.009Z,0
2022-09-23T00:36:00.290Z,0
2022-09-23T00:37:35.175Z,0
2022-09-23T00:38:38.089Z,0
2022-09-23T00:39:41.247Z,0
2022-09-23T00:41:16.616Z,0
2022-09-23T00:42:19.935Z,0
2022-09-23T00:43:23.339Z,0
2022-09-23T00:44:58.366Z,0
2022-09-23T00:46:02.081Z,0
2022-09-23T00:47:05.199Z,0
2022-09-23T00:48:40.198Z,0
2022-09-23T00:49:43.433Z,0
2022-09-23T00:50:46.431Z,0
2022-09-23T00:52:21.378Z,0
2022-09-23T00:53:24.642Z,0
2022-09-23T00:54:27.574Z,0
2022-09-23T00:56:02.993Z,0
2022-09-23T00:57:06.010Z,0
2022-09-23T00:58:09.044Z,0
2022-09-23T00:59:43.958Z,0
2022-09-23T01:00:40.750Z,0
2022-09-23T01:01:44.362Z,0
2022-09-23T01:02:47.747Z,0
2022-09-23T01:04:22.860Z,0
2022-09-23T01:05:25.998Z,0
2022-09-23T01:06:29.272Z,0
2022-09-23T01:08:04.546Z,0
2022-09-23T01:09:07.785Z,0
2022-09-23T01:10:10.777Z,0
2022-09-23T01:11:45.799Z,0
2022-09-23T01:12:49.107Z,0
2022-09-23T01:13:52.018Z,0
2022-09-23T01:15:27.041Z,0
2022-09-23T01:16:30.367Z,0
2022-09-23T01:17:33.570Z,0
2022-09-23T01:19:08.445Z,0
2022-09-23T01:20:11.559Z,0
2022-09-23T01:21:14.544Z,0
2022-09-23T01:22:49.593Z,0
2022-09-23T01:23:52.484Z,0
2022-09-23T01:24:55.529Z,0
2022-09-23T01:26:30.535Z,0
2022-09-23T01:27:33.618Z,0
2022-09-23T01:28:36.666Z,0
2022-09-23T01:30:11.753Z,0
2022-09-23T01:31:15.545Z,0
2022-09-23T01:32:18.571Z,0
2022-09-23T01:33:53.593Z,0
2022-09-23T01:34:56.597Z,0
2022-09-23T01:35:59.587Z,0
2022-09-23T01:37:34.611Z,0
2022-09-23T01:38:37.577Z,0
2022-09-23T01:39:40.640Z,0
2022-09-23T01:41:16.067Z,0
2022-09-23T01:42:19.135Z,0
2022-09-23T01:43:22.149Z,0
2022-09-23T01:44:57.339Z,0
2022-09-23T01:46:00.370Z,0
2022-09-23T01:47:03.680Z,0
2022-09-23T01:48:39.464Z,0
2022-09-23T01:49:42.657Z,0
2022-09-23T01:50:45.571Z,0
2022-09-23T01:52:20.808Z,0
2022-09-23T01:53:23.775Z,0
2022-09-23T01:54:26.822Z,0
2022-09-23T01:56:01.750Z,0
2022-09-23T01:57:04.769Z,0
2022-09-23T01:58:07.867Z,0
2022-09-23T01:59:42.798Z,0
2022-09-23T02:00:40.450Z,0
2022-09-23T02:01:44.421Z,0
2022-09-23T02:02:48.535Z,0
2022-09-23T02:04:23.636Z,0
2022-09-23T02:05:26.750Z,0
2022-09-23T02:06:29.680Z,0
2022-09-23T02:08:04.814Z,0
2022-09-23T02:09:07.965Z,0
2022-09-23T02:10:11.103Z,0
2022-09-23T02:11:46.129Z,0
2022-09-23T02:12:49.216Z,0
2022-09-23T02:13:52.297Z,0
2022-09-23T02:15:27.094Z,0
2022-09-23T02:16:30.759Z,0
2022-09-23T02:17:33.806Z,0
2022-09-23T02:19:08.532Z,0
2022-09-23T02:20:11.510Z,0
2022-09-23T02:21:14.662Z,0
2022-09-23T02:22:49.422Z,0
2022-09-23T02:23:52.568Z,0
2022-09-23T02:24:55.654Z,0
2022-09-23T02:26:30.724Z,0
2022-09-23T02:27:33.795Z,0
2022-09-23T02:28:37.293Z,0
2022-09-23T02:30:12.613Z,0
2022-09-23T02:31:15.519Z,0
2022-09-23T02:32:19.205Z,0
2022-09-23T02:33:54.411Z,0
2022-09-23T02:34:57.386Z,0
2022-09-23T02:36:00.491Z,0
2022-09-23T02:37:35.553Z,0
2022-09-23T02:38:38.705Z,0
2022-09-23T02:39:41.864Z,0
2022-09-23T02:41:17.211Z,0
2022-09-23T02:42:20.086Z,0
2022-09-23T02:43:23.039Z,0
2022-09-23T02:44:58.205Z,0
2022-09-23T02:46:02.129Z,0
2022-09-23T02:47:05.182Z,0
2022-09-23T02:48:40.171Z,0
2022-09-23T02:49:43.148Z,0
2022-09-23T02:50:46.124Z,0
2022-09-23T02:52:21.029Z,0
2022-09-23T02:53:24.112Z,0
2022-09-23T02:54:27.202Z,0
2022-09-23T02:56:02.250Z,0
2022-09-23T02:57:05.604Z,0
2022-09-23T02:58:08.599Z,0
2022-09-23T02:59:43.712Z,0
2022-09-23T03:00:40.082Z,0
2022-09-23T03:01:43.853Z,0
2022-09-23T03:02:47.323Z,0
2022-09-23T03:04:22.129Z,0
2022-09-23T03:05:25.134Z,0
2022-09-23T03:06:28.089Z,0
2022-09-23T03:08:03.112Z,0
2022-09-23T03:09:06.227Z,0
2022-09-23T03:10:09.258Z,0
2022-09-23T03:11:44.529Z,0
2022-09-23T03:12:47.637Z,0
2022-09-23T03:13:56.823Z,0
2022-09-23T03:15:32.204Z,0
2022-09-23T03:16:35.904Z,0
2022-09-23T03:17:39.061Z,0
2022-09-23T03:19:13.948Z,0
2022-09-23T03:20:16.850Z,0
2022-09-23T03:21:20.195Z,0
2022-09-23T03:22:55.781Z,0
2022-09-23T03:23:58.936Z,0
2022-09-23T03:25:05.548Z,0
2022-09-23T03:26:40.529Z,0
2022-09-23T03:27:43.656Z,0
2022-09-23T03:28:46.578Z,0
2022-09-23T03:30:21.604Z,0
2022-09-23T03:31:24.767Z,0
2022-09-23T03:32:27.831Z,0
2022-09-23T03:34:02.594Z,0
2022-09-23T03:35:05.673Z,0
2022-09-23T03:36:08.916Z,0
2022-09-23T03:37:43.998Z,0
2022-09-23T03:38:47.069Z,0
2022-09-23T03:39:49.829Z,0
2022-09-23T03:41:25.307Z,0
2022-09-23T03:42:28.351Z,0
2022-09-23T03:43:31.254Z,0
2022-09-23T03:45:06.409Z,0
2022-09-23T03:46:10.198Z,0
2022-09-23T03:47:13.220Z,0
2022-09-23T03:48:48.316Z,0
2022-09-23T03:49:51.127Z,0
2022-09-23T03:50:54.202Z,0
2022-09-23T03:52:29.192Z,0
2022-09-23T03:53:32.514Z,0
2022-09-23T03:54:35.689Z,0
2022-09-23T03:56:10.457Z,0
2022-09-23T03:57:13.732Z,0
2022-09-23T03:58:16.562Z,0
2022-09-23T03:59:51.391Z,0
2022-09-23T04:00:41.081Z,0
2022-09-23T04:01:44.639Z,0
2022-09-23T04:02:48.227Z,0
2022-09-23T04:04:26.427Z,0
2022-09-23T04:06:11.457Z,0
2022-09-23T04:07:15.214Z,0
2022-09-23T04:08:18.675Z,0
2022-09-23T04:09:54.306Z,0
2022-09-23T04:11:00.768Z,0
2022-09-23T04:12:04.253Z,0
2022-09-23T04:13:39.935Z,0
2022-09-23T04:14:43.284Z,0
2022-09-23T04:15:46.961Z,0
2022-09-23T04:17:22.874Z,0
2022-09-23T04:18:26.297Z,0
2022-09-23T04:19:34.480Z,0
2022-09-23T04:21:10.199Z,0
2022-09-23T04:22:13.832Z,0
2022-09-23T04:23:17.395Z,0
2022-09-23T04:24:52.982Z,0
2022-09-23T04:25:56.389Z,0
2022-09-23T04:26:59.953Z,0
2022-09-23T04:28:41.071Z,0
2022-09-23T04:29:44.518Z,0
2022-09-23T04:30:47.918Z,0
2022-09-23T04:32:23.909Z,0
2022-09-23T04:33:27.374Z,0
2022-09-23T04:34:30.764Z,0
2022-09-23T04:36:09.059Z,0
2022-09-23T04:37:12.555Z,0
2022-09-23T04:38:16.045Z,0
2022-09-23T04:39:51.508Z,0
2022-09-23T04:40:55.548Z,0
2022-09-23T04:41:58.905Z,0
2022-09-23T04:43:38.095Z,0
2022-09-23T04:44:41.564Z,0
2022-09-23T04:45:44.974Z,0
2022-09-23T04:47:20.871Z,0
2022-09-23T04:48:24.382Z,0
2022-09-23T04:49:27.984Z,0
2022-09-23T04:51:08.736Z,0
2022-09-23T04:52:12.324Z,0
2022-09-23T04:53:15.811Z,0
2022-09-23T04:54:51.647Z,0
2022-09-23T04:55:55.132Z,0
2022-09-23T04:56:58.471Z,0
2022-09-23T04:58:33.771Z,0
2022-09-23T04:59:37.444Z,0
2022-09-23T05:00:41.488Z,0
2022-09-23T05:01:46.023Z,0
2022-09-23T05:02:49.938Z,0
2022-09-23T05:04:25.832Z,0
2022-09-23T05:05:29.151Z,0
2022-09-23T05:06:32.558Z,0
2022-09-23T05:08:12.189Z,0
2022-09-23T05:09:15.600Z,0
2022-09-23T05:10:18.964Z,0
2022-09-23T05:11:54.450Z,0
2022-09-23T05:13:03.031Z,0
2022-09-23T05:14:06.441Z,0
2022-09-23T05:15:41.980Z,0
2022-09-23T05:16:45.767Z,0
2022-09-23T05:17:49.158Z,0
2022-09-23T05:19:29.915Z,0
2022-09-23T05:20:33.369Z,0
2022-09-23T05:21:36.920Z,0
2022-09-23T05:23:12.124Z,0
2022-09-23T05:24:15.542Z,0
2022-09-23T05:25:18.773Z,0
2022-09-23T05:26:54.387Z,0
2022-09-23T05:27:57.764Z,0
2022-09-23T05:29:01.217Z,0
2022-09-23T05:30:36.607Z,0
2022-09-23T05:31:46.279Z,0
2022-09-23T05:32:49.807Z,0
2022-09-23T05:34:25.193Z,0
2022-09-23T05:35:28.546Z,0
2022-09-23T05:36:36.946Z,0
2022-09-23T05:38:13.271Z,0
2022-09-23T05:39:17.177Z,0
2022-09-23T05:40:20.850Z,0
2022-09-23T05:41:56.548Z,0
2022-09-23T05:43:00.115Z,0
2022-09-23T05:44:03.601Z,0
2022-09-23T05:45:39.289Z,0
2022-09-23T05:46:43.255Z,0
2022-09-23T05:47:46.421Z,0
2022-09-23T05:49:59.195Z,0
2022-09-23T05:51:03.247Z,0
2022-09-23T05:52:06.784Z,0
2022-09-23T05:53:42.033Z,0
2022-09-23T05:54:45.172Z,0
2022-09-23T05:55:48.670Z,0
2022-09-23T05:57:27.798Z,0
2022-09-23T05:58:31.238Z,0
2022-09-23T05:59:34.727Z,0
2022-09-23T06:00:40.936Z,0
2022-09-23T06:01:44.930Z,0
2022-09-23T06:02:48.893Z,0
2022-09-23T06:04:25.091Z,0
2022-09-23T06:05:28.725Z,0
2022-09-23T06:06:31.975Z,0
2022-09-23T06:08:12.966Z,0
2022-09-23T06:09:16.502Z,0
2022-09-23T06:10:19.739Z,0
2022-09-23T06:11:58.686Z,0
2022-09-23T06:13:02.106Z,0
2022-09-23T06:14:05.761Z,0
2022-09-23T06:15:41.297Z,0
2022-09-23T06:16:45.412Z,0
2022-09-23T06:17:48.823Z,0
2022-09-23T06:19:28.514Z,0.435
2022-09-23T06:20:31.953Z,0
2022-09-23T06:21:35.380Z,0
2022-09-23T06:23:17.407Z,0
2022-09-23T06:24:37.136Z,0
2022-09-23T06:25:40.639Z,0
2022-09-23T06:27:15.900Z,0
2022-09-23T06:28:19.358Z,0
2022-09-23T06:29:22.516Z,0.435
2022-09-23T06:30:58.103Z,0.435
2022-09-23T06:32:02.138Z,0
2022-09-23T06:33:05.574Z,0.435
2022-09-23T06:35:06.818Z,0.435
2022-09-23T06:36:45.029Z,0.435
2022-09-23T06:37:49.624Z,0.435
2022-09-23T06:39:24.931Z,0.435
2022-09-23T06:40:29.005Z,0.435
2022-09-23T06:41:32.247Z,0.435
2022-09-23T06:43:12.896Z,0.435
2022-09-23T06:44:16.402Z,0.435
2022-09-23T06:45:19.938Z,0.585
2022-09-23T06:46:56.112Z,0.585
2022-09-23T06:47:59.576Z,0.585
2022-09-23T06:49:08.801Z,0.585
2022-09-23T06:50:43.971Z,0.585
2022-09-23T06:51:47.313Z,0.585
2022-09-23T06:52:50.558Z,0.585
2022-09-23T06:54:25.949Z,0.585
2022-09-23T06:55:29.276Z,0.585
2022-09-23T06:56:36.328Z,0.585
2022-09-23T06:58:14.359Z,0.585
2022-09-23T06:59:17.521Z,0.585
2022-09-23T07:00:40.502Z,0.585
2022-09-23T07:01:45.167Z,0.585
2022-09-23T07:02:49.577Z,0.585
2022-09-23T07:04:29.117Z,0.585
2022-09-23T07:05:32.873Z,0.585
2022-09-23T07:06:36.192Z,0.585
2022-09-23T07:08:11.553Z,0.435
2022-09-23T07:09:15.015Z,0.585
2022-09-23T07:10:18.276Z,0.585
2022-09-23T07:11:53.535Z,0.585
2022-09-23T07:12:56.907Z,0.585
2022-09-23T07:14:00.395Z,0.585
2022-09-23T07:15:36.058Z,0.585
2022-09-23T07:16:40.064Z,0.735
2022-09-23T07:17:43.555Z,0.885
2022-09-23T07:19:19.141Z,0.735
2022-09-23T07:20:22.755Z,0.735
2022-09-23T07:21:26.011Z,0.885
2022-09-23T07:23:01.586Z,1.02
2022-09-23T07:24:04.907Z,0.885
2022-09-23T07:25:08.172Z,0.885
2022-09-23T07:26:50.588Z,1.02
2022-09-23T07:27:53.999Z,1.02
2022-09-23T07:28:57.146Z,1.02
2022-09-23T07:31:04.540Z,1.17
2022-09-23T07:32:25.037Z,1.17
2022-09-23T07:33:50.144Z,1.17
2022-09-23T07:35:25.433Z,1.32
2022-09-23T07:36:28.827Z,1.17
2022-09-23T07:37:31.879Z,1.17
2022-09-23T07:39:13.791Z,1.32
2022-09-23T07:40:17.485Z,1.32
2022-09-23T07:41:21.097Z,1.32
2022-09-23T07:42:56.712Z,1.32
2022-09-23T07:44:00.200Z,1.32
2022-09-23T07:45:03.604Z,1.32
2022-09-23T07:46:39.865Z,1.32
2022-09-23T07:47:43.197Z,1.32
2022-09-23T07:48:51.703Z,1.47
2022-09-23T07:50:26.921Z,1.47
2022-09-23T07:51:35.514Z,1.32
2022-09-23T07:52:39.637Z,1.47
2022-09-23T07:54:15.419Z,1.47
2022-09-23T07:55:23.263Z,1.47
2022-09-23T07:56:26.201Z,1.47
2022-09-23T07:58:01.404Z,1.755
2022-09-23T07:59:04.738Z,1.755
2022-09-23T08:00:40.014Z,1.905
2022-09-23T08:01:44.162Z,1.755
2022-09-23T08:02:52.736Z,1.755
2022-09-23T08:04:28.482Z,1.905
2022-09-23T08:05:31.768Z,1.905
2022-09-23T08:06:34.944Z,1.905
2022-09-23T08:08:10.451Z,1.905
2022-09-23T08:09:18.705Z,1.755
2022-09-23T08:10:21.948Z,1.755
2022-09-23T08:11:57.421Z,1.755
2022-09-23T08:13:00.880Z,1.755
2022-09-23T08:14:04.117Z,1.755
2022-09-23T08:15:39.710Z,1.755
2022-09-23T08:16:43.326Z,1.755
2022-09-23T08:17:46.727Z,1.755
2022-09-23T08:19:22.514Z,1.755
2022-09-23T08:20:25.878Z,1.755
2022-09-23T08:21:29.144Z,1.755
2022-09-23T08:23:04.394Z,1.755
2022-09-23T08:24:07.716Z,1.755
2022-09-23T08:25:17.411Z,1.755
2022-09-23T08:26:56.481Z,1.47
2022-09-23T08:27:59.742Z,1.755
2022-09-23T08:29:03.117Z,1.47
2022-09-23T08:30:38.406Z,1.47
2022-09-23T08:31:41.926Z,1.47
2022-09-23T08:32:45.126Z,1.755
2022-09-23T08:34:26.568Z,1.755
2022-09-23T08:35:29.739Z,1.47
2022-09-23T08:36:33.017Z,1.755
2022-09-23T08:38:08.386Z,1.755
2022-09-23T08:39:11.618Z,1.47
2022-09-23T08:40:15.199Z,1.755
2022-09-23T08:41:54.875Z,1.47
2022-09-23T08:43:01.016Z,1.755
2022-09-23T08:44:04.747Z,1.905
2022-09-23T08:45:40.223Z,1.905
2022-09-23T08:46:43.847Z,1.905
2022-09-23T08:47:47.200Z,1.905
2022-09-23T08:49:27.515Z,2.055
2022-09-23T08:50:30.967Z,2.055
2022-09-23T08:51:34.128Z,2.055
2022-09-23T08:53:09.432Z,2.19
2022-09-23T08:54:12.674Z,2.34
2022-09-23T08:55:21.513Z,2.34
2022-09-23T08:56:58.234Z,2.34
2022-09-23T08:58:36.146Z,2.49
2022-09-23T08:59:39.451Z,2.34
2022-09-23T09:00:40.934Z,2.49
2022-09-23T09:01:44.807Z,2.34
2022-09-23T09:02:48.573Z,2.49
2022-09-23T09:04:29.637Z,2.49
2022-09-23T09:05:32.838Z,2.34
2022-09-23T09:06:45.594Z,2.34
2022-09-23T09:08:50.744Z,2.34
2022-09-23T09:09:53.904Z,2.19
2022-09-23T09:10:57.556Z,2.19
2022-09-23T09:12:32.749Z,2.055
2022-09-23T09:13:35.992Z,2.055
2022-09-23T09:14:39.383Z,2.19
2022-09-23T09:16:27.268Z,2.055
2022-09-23T09:17:46.223Z,2.055
2022-09-23T09:18:49.425Z,2.055
2022-09-23T09:20:25.174Z,2.19
2022-09-23T09:21:28.370Z,2.19
2022-09-23T09:22:31.525Z,2.19
2022-09-23T09:24:07.118Z,2.19
2022-09-23T09:25:14.425Z,2.055
2022-09-23T09:26:17.887Z,2.055
2022-09-23T09:27:53.225Z,1.905
2022-09-23T09:29:23.437Z,1.905
2022-09-23T09:30:37.328Z,1.905
2022-09-23T09:32:13.149Z,1.905
2022-09-23T09:33:16.350Z,1.905
2022-09-23T09:34:19.510Z,2.055
2022-09-23T09:35:54.916Z,2.055
2022-09-23T09:37:02.281Z,2.19
2022-09-23T09:38:10.724Z,2.34
2022-09-23T09:39:49.034Z,2.19
2022-09-23T09:40:52.943Z,2.19
2022-09-23T09:41:56.424Z,2.19
2022-09-23T09:43:32.414Z,2.19
2022-09-23T09:44:37.037Z,2.49
2022-09-23T09:45:44.999Z,2.49
2022-09-23T09:47:21.029Z,2.34
2022-09-23T09:48:24.248Z,2.34
2022-09-23T09:49:27.573Z,2.34
2022-09-23T09:51:03.041Z,2.49
2022-09-23T09:52:06.468Z,2.49
2022-09-23T09:53:09.738Z,2.34
2022-09-23T09:54:44.947Z,2.34
2022-09-23T09:55:48.253Z,2.34
2022-09-23T09:56:54.787Z,2.34
2022-09-23T09:58:33.823Z,2.49
2022-09-23T09:59:36.958Z,2.49
2022-09-23T10:00:40.581Z,2.64
2022-09-23T10:01:44.558Z,2.49
2022-09-23T10:02:47.944Z,2.49
2022-09-23T10:04:27.936Z,2.49
2022-09-23T10:05:31.143Z,2.64
2022-09-23T10:06:34.592Z,2.64
2022-09-23T10:08:10.018Z,2.64
2022-09-23T10:09:13.534Z,2.64
2022-09-23T10:10:48.701Z,2.79
2022-09-23T10:12:24.405Z,2.64
2022-09-23T10:13:27.668Z,2.49
2022-09-23T10:14:30.901Z,2.64
2022-09-23T10:16:12.115Z,2.49
2022-09-23T10:17:15.914Z,2.49
2022-09-23T10:18:19.371Z,2.49
2022-09-23T10:19:54.516Z,2.49
2022-09-23T10:20:57.738Z,2.49
2022-09-23T10:22:01.124Z,2.49
2022-09-23T10:23:36.730Z,2.34
2022-09-23T10:24:40.054Z,2.34
2022-09-23T10:25:43.534Z,2.34
2022-09-23T10:27:18.683Z,2.49
2022-09-23T10:28:25.234Z,2.34
2022-09-23T10:29:28.776Z,2.49
2022-09-23T10:31:04.650Z,2.49
2022-09-23T10:32:07.897Z,2.49
2022-09-23T10:33:11.143Z,2.49
2022-09-23T10:34:46.732Z,2.49
2022-09-23T10:35:50.301Z,2.64
2022-09-23T10:36:58.351Z,2.49
2022-09-23T10:38:33.622Z,2.49
2022-09-23T10:39:37.042Z,2.49
2022-09-23T10:40:41.386Z,2.64
2022-09-23T10:42:17.231Z,2.49
2022-09-23T10:43:20.296Z,2.34
2022-09-23T10:44:23.980Z,2.49
2022-09-23T10:46:05.677Z,2.34
2022-09-23T10:47:09.172Z,2.34
2022-09-23T10:48:12.347Z,2.19
2022-09-23T10:49:47.833Z,2.19
2022-09-23T10:50:51.242Z,2.19
2022-09-23T10:51:54.987Z,2.055
2022-09-23T10:53:30.158Z,2.055
2022-09-23T10:54:33.645Z,1.905
2022-09-23T10:55:36.954Z,2.055
2022-09-23T10:57:19.554Z,2.055
2022-09-23T10:58:23.067Z,1.905
2022-09-23T10:59:26.386Z,1.905
2022-09-23T11:00:40.735Z,2.055
2022-09-23T11:01:44.877Z,2.055
2022-09-23T11:02:48.258Z,2.19
2022-09-23T11:04:24.855Z,2.055
2022-09-23T11:05:28.469Z,2.055
2022-09-23T11:06:31.581Z,2.19
2022-09-23T11:08:07.397Z,2.19
2022-09-23T11:09:10.489Z,2.055
2022-09-23T11:10:45.050Z,1.905
2022-09-23T11:12:21.317Z,2.055
2022-09-23T11:13:24.524Z,1.905
2022-09-23T11:14:28.251Z,2.055
2022-09-23T11:16:03.407Z,1.905
2022-09-23T11:17:07.688Z,1.905
2022-09-23T11:18:11.234Z,1.905
2022-09-23T11:19:51.221Z,1.905
2022-09-23T11:20:54.621Z,1.905
2022-09-23T11:21:58.172Z,1.755
2022-09-23T11:23:33.336Z,1.905
2022-09-23T11:24:36.976Z,1.755
2022-09-23T11:25:40.475Z,1.755
2022-09-23T11:27:15.843Z,1.755
2022-09-23T11:28:19.277Z,1.755
2022-09-23T11:29:23.404Z,1.755
2022-09-23T11:30:59.154Z,1.47
2022-09-23T11:32:07.517Z,1.32
2022-09-23T11:33:11.332Z,1.32
2022-09-23T11:34:49.989Z,1.47
2022-09-23T11:35:55.957Z,1.32
2022-09-23T11:36:59.347Z,1.32
2022-09-23T11:38:34.901Z,1.47
2022-09-23T11:39:38.440Z,1.47
2022-09-23T11:40:46.491Z,1.47
2022-09-23T11:42:22.495Z,1.47
2022-09-23T11:43:26.004Z,1.47
2022-09-23T11:44:29.530Z,1.755
2022-09-23T11:46:05.734Z,1.47
2022-09-23T11:47:09.163Z,1.755
2022-09-23T11:48:12.570Z,1.47
2022-09-23T11:49:48.106Z,1.47
2022-09-23T11:50:51.484Z,1.47
2022-09-23T11:51:55.022Z,1.47
2022-09-23T11:53:30.284Z,1.47
2022-09-23T11:54:37.916Z,1.47
2022-09-23T11:56:02.591Z,1.47
2022-09-23T11:58:15.601Z,1.47
2022-09-23T11:59:41.525Z,1.32
2022-09-23T12:00:43.636Z,1.47
2022-09-23T12:02:16.241Z,1.32
2022-09-23T12:03:49.442Z,1.32
2022-09-23T12:05:38.177Z,1.32
2022-09-23T12:06:41.343Z,1.32
2022-09-23T12:07:44.814Z,1.32
2022-09-23T12:09:35.779Z,1.47
2022-09-23T12:10:50.840Z,1.47
2022-09-23T12:11:54.335Z,1.32
2022-09-23T12:13:35.870Z,1.47
2022-09-23T12:14:38.968Z,1.32
2022-09-23T12:15:42.206Z,1.32
2022-09-23T12:17:17.853Z,1.47
2022-09-23T12:18:27.909Z,1.47
2022-09-23T12:19:31.266Z,1.47
2022-09-23T12:21:06.606Z,1.755
2022-09-23T12:22:19.670Z,1.755
2022-09-23T12:23:23.043Z,1.755
2022-09-23T12:24:58.287Z,2.055
2022-09-23T12:26:01.849Z,2.055
2022-09-23T12:27:05.002Z,2.19
2022-09-23T12:28:40.644Z,2.19
2022-09-23T12:29:44.173Z,2.19
2022-09-23T12:30:47.882Z,2.19
2022-09-23T12:32:23.635Z,2.19
2022-09-23T12:33:26.852Z,2.19
2022-09-23T12:34:30.415Z,2.34
2022-09-23T12:36:05.634Z,2.49
2022-09-23T12:37:09.026Z,2.34
2022-09-23T12:38:12.242Z,2.49
2022-09-23T12:39:47.674Z,2.34
2022-09-23T12:40:51.603Z,2.19
2022-09-23T12:41:54.821Z,2.19
2022-09-23T12:43:34.748Z,2.19
2022-09-23T12:44:38.299Z,2.19
2022-09-23T12:45:41.704Z,2.19
2022-09-23T12:47:17.266Z,2.34
2022-09-23T12:48:20.392Z,2.49
2022-09-23T12:49:23.610Z,2.49
2022-09-23T12:50:59.211Z,2.34
2022-09-23T12:52:02.444Z,2.49
2022-09-23T12:53:05.933Z,2.49
2022-09-23T12:54:41.507Z,2.34
2022-09-23T12:55:44.917Z,2.49
2022-09-23T12:56:48.206Z,2.49
2022-09-23T12:58:23.443Z,2.34
2022-09-23T12:59:26.784Z,2.34
2022-09-23T13:00:45.704Z,2.49
2022-09-23T13:01:50.275Z,2.34
2022-09-23T13:02:54.154Z,2.34
2022-09-23T13:04:30.058Z,2.19
2022-09-23T13:05:33.498Z,2.19
2022-09-23T13:06:36.611Z,2.19
2022-09-23T13:08:12.279Z,2.34
2022-09-23T13:09:15.534Z,2.34
2022-09-23T13:10:18.648Z,2.34
2022-09-23T13:11:54.024Z,2.49
2022-09-23T13:12:57.104Z,2.49
2022-09-23T13:14:00.314Z,2.49
2022-09-23T13:15:41.912Z,2.19
2022-09-23T13:16:46.062Z,2.34
2022-09-23T13:17:49.413Z,2.055
2022-09-23T13:19:24.858Z,2.055
2022-09-23T13:20:28.062Z,2.055
2022-09-23T13:21:31.321Z,2.055
2022-09-23T13:23:06.664Z,2.19
2022-09-23T13:24:09.862Z,2.055
2022-09-23T13:25:13.092Z,2.055
2022-09-23T13:26:48.830Z,2.19
2022-09-23T13:27:52.199Z,2.19
2022-09-23T13:28:55.498Z,2.055
2022-09-23T13:30:37.486Z,2.19
2022-09-23T13:31:41.464Z,2.19
2022-09-23T13:32:45.011Z,2.19
2022-09-23T13:34:20.342Z,2.19
2022-09-23T13:35:23.491Z,2.34
2022-09-23T13:36:27.005Z,2.19
2022-09-23T13:38:02.378Z,2.19
2022-09-23T13:39:05.740Z,2.34
2022-09-23T13:40:09.104Z,2.34
2022-09-23T13:41:45.110Z,2.19
2022-09-23T13:42:48.004Z,2.055
2022-09-23T13:43:57.494Z,1.905
2022-09-23T13:45:33.083Z,1.905
2022-09-23T13:46:36.917Z,2.055
2022-09-23T13:47:40.153Z,2.055
2022-09-23T13:49:15.672Z,2.055
2022-09-23T13:50:19.122Z,2.055
2022-09-23T13:51:22.440Z,2.055
2022-09-23T13:52:57.909Z,2.055
2022-09-23T13:54:01.513Z,2.055
2022-09-23T13:55:04.805Z,1.905
2022-09-23T13:56:40.160Z,2.055
2022-09-23T13:57:43.491Z,1.905
2022-09-23T13:58:46.862Z,1.755
2022-09-23T14:00:40.644Z,1.905
2022-09-23T14:01:44.517Z,1.755
2022-09-23T14:02:48.242Z,1.47
2022-09-23T14:04:23.769Z,1.755
2022-09-23T14:05:27.032Z,1.47
2022-09-23T14:06:30.369Z,1.47
2022-09-23T14:08:05.729Z,1.47
2022-09-23T14:09:08.941Z,1.47
2022-09-23T14:10:12.290Z,1.47
2022-09-23T14:11:47.841Z,1.47
2022-09-23T14:12:51.082Z,1.47
2022-09-23T14:13:54.802Z,1.47
2022-09-23T14:15:30.076Z,1.32
2022-09-23T14:16:34.197Z,1.32
2022-09-23T14:17:37.502Z,1.32
2022-09-23T14:19:12.816Z,1.32
2022-09-23T14:20:15.979Z,1.17
2022-09-23T14:21:19.268Z,1.32
2022-09-23T14:22:54.901Z,1.17
2022-09-23T14:23:58.310Z,1.17
2022-09-23T14:25:01.801Z,1.17
2022-09-23T14:26:37.397Z,1.17
2022-09-23T14:27:40.604Z,1.32
2022-09-23T14:28:43.683Z,1.17
2022-09-23T14:30:19.250Z,1.17
2022-09-23T14:31:22.895Z,1.32
2022-09-23T14:32:26.470Z,1.32
2022-09-23T14:34:02.550Z,1.32
2022-09-23T14:35:06.042Z,1.17
2022-09-23T14:36:09.622Z,1.17
2022-09-23T14:37:45.427Z,1.17
2022-09-23T14:38:49.017Z,1.32
2022-09-23T14:39:57.051Z,1.02
2022-09-23T14:41:33.134Z,1.17
2022-09-23T14:42:36.619Z,1.02
2022-09-23T14:43:39.991Z,1.17
2022-09-23T14:45:15.868Z,1.17
2022-09-23T14:46:20.111Z,1.02
2022-09-23T14:47:29.236Z,0.885
2022-09-23T14:49:04.760Z,1.02
2022-09-23T14:50:08.261Z,1.02
2022-09-23T14:51:16.724Z,1.02
2022-09-23T14:52:52.614Z,1.02
2022-09-23T14:53:55.876Z,1.02
2022-09-23T14:54:59.351Z,1.02
2022-09-23T14:56:36.474Z,1.02
2022-09-23T14:57:39.722Z,1.17
2022-09-23T14:58:42.963Z,1.17
2022-09-23T15:00:40.227Z,1.17
2022-09-23T15:01:44.614Z,1.17
2022-09-23T15:02:48.076Z,1.17
2022-09-23T15:04:23.774Z,1.02
2022-09-23T15:05:27.145Z,1.02
2022-09-23T15:06:36.620Z,1.02
2022-09-23T15:08:11.934Z,1.02
2022-09-23T15:09:15.210Z,1.02
2022-09-23T15:10:18.716Z,0.885
2022-09-23T15:11:54.023Z,1.02
2022-09-23T15:12:57.303Z,1.02
2022-09-23T15:14:19.618Z,1.02
2022-09-23T15:16:08.934Z,1.02
2022-09-23T15:17:12.751Z,0.885
2022-09-23T15:18:15.823Z,0.735
2022-09-23T15:19:51.333Z,0.735
2022-09-23T15:20:54.521Z,0.585
2022-09-23T15:21:58.115Z,0.585
2022-09-23T15:23:39.193Z,0.585
2022-09-23T15:24:42.330Z,0.585
2022-09-23T15:25:45.410Z,0.585
2022-09-23T15:27:20.670Z,0.585
2022-09-23T15:28:24.136Z,0.585
2022-09-23T15:29:27.663Z,0.585
2022-09-23T15:31:02.874Z,0.585
2022-09-23T15:32:06.964Z,0.585
2022-09-23T15:33:10.033Z,0.585
2022-09-23T15:34:45.562Z,0.435
2022-09-23T15:35:49.005Z,0.435
2022-09-23T15:36:52.190Z,0.435
2022-09-23T15:38:27.616Z,0.435
2022-09-23T15:39:41.755Z,0.435
2022-09-23T15:40:45.578Z,0.435
2022-09-23T15:42:20.865Z,0.435
2022-09-23T15:43:30.707Z,0.435
2022-09-23T15:44:34.131Z,0.435
2022-09-23T15:46:10.282Z,0.435
2022-09-23T15:47:13.416Z,0.435
2022-09-23T15:48:16.641Z,0.435
2022-09-23T15:49:51.973Z,0.435
2022-09-23T15:50:55.085Z,0.435
2022-09-23T15:51:58.407Z,0.435
2022-09-23T15:53:33.721Z,0
2022-09-23T15:54:37.259Z,0
2022-09-23T15:55:40.596Z,0
2022-09-23T15:57:15.967Z,0
2022-09-23T15:58:19.099Z,0.435
2022-09-23T15:59:22.768Z,0
2022-09-23T16:00:41.165Z,0.435
2022-09-23T16:01:45.200Z,0.435
2022-09-23T16:02:49.109Z,0.435
2022-09-23T16:04:24.247Z,0.435
2022-09-23T16:06:10.522Z,0
2022-09-23T16:07:13.923Z,0.435
2022-09-23T16:08:22.040Z,0.435
2022-09-23T16:09:57.697Z,0
2022-09-23T16:11:01.243Z,0
2022-09-23T16:12:04.550Z,0
2022-09-23T16:13:39.958Z,0
2022-09-23T16:14:43.380Z,0.435
2022-09-23T16:15:46.866Z,0
2022-09-23T16:17:22.584Z,0
2022-09-23T16:18:26.099Z,0
2022-09-23T16:19:29.817Z,0
2022-09-23T16:21:05.455Z,0
2022-09-23T16:22:08.770Z,0
2022-09-23T16:23:11.955Z,0.435
2022-09-23T16:24:51.022Z,0.435
2022-09-23T16:25:54.187Z,0
2022-09-23T16:26:57.389Z,0
2022-09-23T16:28:32.903Z,0
2022-09-23T16:29:36.170Z,0
2022-09-23T16:30:39.365Z,0.435
2022-09-23T16:32:20.114Z,0
2022-09-23T16:33:25.256Z,0
2022-09-23T16:34:28.426Z,0
2022-09-23T16:36:03.725Z,0
2022-09-23T16:37:07.150Z,0
2022-09-23T16:38:10.576Z,0
2022-09-23T16:39:46.331Z,0
2022-09-23T16:40:56.533Z,0
2022-09-23T16:42:00.042Z,0
2022-09-23T16:43:35.421Z,0
2022-09-23T16:44:38.701Z,0
2022-09-23T16:45:42.301Z,0
2022-09-23T16:47:17.877Z,0
2022-09-23T16:48:20.804Z,0
2022-09-23T16:49:24.269Z,0
2022-09-23T16:50:59.902Z,0
2022-09-23T16:52:03.108Z,0
2022-09-23T16:53:06.436Z,0
2022-09-23T16:54:41.683Z,0
2022-09-23T16:55:44.923Z,0
2022-09-23T16:56:56.018Z,0
2022-09-23T16:58:31.271Z,0
2022-09-23T16:59:34.461Z,0
2022-09-23T17:00:41.573Z,0
2022-09-23T17:01:45.586Z,0
2022-09-23T17:02:49.295Z,0
2022-09-23T17:04:24.667Z,0
2022-09-23T17:05:27.811Z,0
2022-09-23T17:06:36.513Z,0
2022-09-23T17:08:11.692Z,0
2022-09-23T17:09:14.887Z,0
2022-09-23T17:10:18.097Z,0
2022-09-23T17:11:56.893Z,0
2022-09-23T17:13:00.085Z,0
2022-09-23T17:14:03.626Z,0
2022-09-23T17:15:38.617Z,0
2022-09-23T17:16:42.751Z,0
2022-09-23T17:17:46.186Z,0